Kezdőlap
METAR-TAF:

METAR-TAF

Repülőterek :

Pointe-à-Pitre, Guadeloupe

földrajzi szélesség: 16-16N, földrajzi hosszúság: 061-31W, magasság: 11 m

Jelenlegi meteorológiai megfigyelések

A jelentés 24 perccel ezelõtt készült, 10:30 UTC
Keleti szél 5 kt
Hőmérséklet 25°C
Páratartalom 94%
Légköri nyomás 1017 hPa
Látótávolság 10 km, vagy több

METAR: TFFR 161030Z AUTO 10005KT 9999 FEW032/// ///TCU 25/24 Q1017 TEMPO 4000 SHRA

Idő: 06:54 (10:54 UTC)

Előrejelzés

A jelentés 6 órával és 54 perccel ezelõtt készült, 04:00 UTC
Az előrejelzés 16-én 06 óra UTC és 17-én 06 óra UTC között érvényes
Keleti szél 6 kt
Látótávolság 10 km, vagy több
Kevés felhő 2000 lábon
Szakadozott felhőzet 4300 lábon
16-én 06 óra UTC és 16-én 21 óra UTC között ideiglenes
Látótávolság: 4000 m
Szakadozott felhőzet 1800 lábon, Tornyos gomolyfelhő.
záporok

TAF: TFFR 160400Z 1606/1706 09006KT 9999 FEW020 BKN043 TEMPO 1606/1621 4000 SHRA BKN018TCU

Meteorológiai megfigyelések és előrejelzések több, mint 4000 repülőtéren (METAR és TAF jelentéseket).

A térképen piros és sárga pontok jelzik az elérhető meteorológiai állomásokat.

Mozgassa az egeret a pont fölött, hogy megjelenjen az állomás neve.

Azután kattintson az időjárási megfigyelések és előrejelzések megtekintéséhez.

A térkép megváltoztatása: kattintson a fekete keresztel jelölt zöld gombra ráközelítéshez, a vonallal jelölt zöld gombra távolításhoz, vagy a zöld nyilakra a szomszédos térképek eléréséhez.


METAR-TAF: